Attica Junction, Ohio
Current Conditions -  °F | °C
As of 9:03 AM on Saturday 22 Nov 2014 (Local Time) from KMFD Reporting Station
Light Rain Light Rain  
Wind Chill: 23°   Ceiling: 2800
Heat Index: 34°   Visibility: 4mi
Dew Point: 33°   Wind: 17mph
Humidity: 96%   Direction: 190°S
Pressure: 30.2"   Gusts: NA
Location:  41.0654°N, 82.876°W
Report Text: KMFD 221403Z 19015KT 4SM -RA BR FEW008 BKN028 OVC036 01/01 A3020 RMK AO2 RAB03FZRAE03 P0002 T00110006
Loading
Personal Weather Stations






























Interactive Weather Map New forecast layout! Learn more

10-Day Weather Forecast

Advertisements
Track Severe Weather on mobile